Time;durP1;ratioP1;P1;durP2;ratioP2;P2;SDS_P1;SDS_P2;PMS_P1;PMS_P2;Temp;Humidity;BMP_temperature;BMP_pressure;BME280_temperature;BME280_humidity;BME280_pressure;Samples;Min_cycle;Max_cycle;Signal;HPM_P1;HPM_P2
2022/02/06 00:01:00;;;;;;;;;;;0.70;83.30;;;;;;6186658;23;19925;-75
2022/02/06 00:03:27;;;;;;;;;;;0.80;83.80;;;;;;6182591;23;19916;-77
2022/02/06 00:05:54;;;;;;;;;;;0.80;83.80;;;;;;6156006;23;19923;-74
2022/02/06 00:08:21;;;;;;;;;;;0.80;83.70;;;;;;6182413;23;19940;-76
2022/02/06 00:10:47;;;;;;;;;;;0.80;83.40;;;;;;6184636;23;19916;-75
2022/02/06 00:13:14;;;;;;;;;;;0.90;86.40;;;;;;6184760;23;19920;-75
2022/02/06 00:15:41;;;;;;;;;;;0.90;87.40;;;;;;6158548;23;19920;-75
2022/02/06 00:18:08;;;;;;;;;;;0.90;86.40;;;;;;6183617;23;19947;-75
2022/02/06 00:20:46;;;;;;;;;;;0.90;85.20;;;;;;6158817;23;20682;-76
2022/02/06 00:23:14;;;;;;;;;;;0.90;84.80;;;;;;6182520;23;19916;-77
2022/02/06 00:25:54;;;;;;;;;;;0.80;84.00;;;;;;6157860;23;19990;-75
2022/02/06 00:28:38;;;;;;;;;;;0.70;83.90;;;;;;6183817;23;19924;-77
2022/02/06 00:34:14;;;;;;;;;;;0.60;84.70;;;;;;6186731;23;19915;-75
2022/02/06 00:41:22;;;;;;;;;;;0.40;84.70;;;;;;6185692;23;19916;-74
2022/02/06 00:43:49;;;;;;;;;;;0.40;84.40;;;;;;6182827;23;19920;-75
2022/02/06 00:46:17;;;;;;;;;;;0.40;85.60;;;;;;6186154;23;19974;-74
2022/02/06 00:48:53;;;;;;;;;;;0.30;84.90;;;;;;6158235;23;19916;-78
2022/02/06 00:51:29;;;;;;;;;;;0.30;84.40;;;;;;6184550;23;19951;-78
2022/02/06 00:53:58;;;;;;;;;;;0.30;85.60;;;;;;6183750;23;19916;-75
2022/02/06 00:56:24;;;;;;;;;;;0.30;85.20;;;;;;6159081;23;19916;-78
2022/02/06 00:58:51;;;;;;;;;;;0.30;85.90;;;;;;6186338;23;20652;-76
2022/02/06 01:01:18;;;;;;;;;;;0.30;85.60;;;;;;6181926;23;19916;-77
2022/02/06 01:03:46;;;;;;;;;;;0.30;86.00;;;;;;6186944;23;19916;-75
2022/02/06 01:06:12;;;;;;;;;;;0.30;87.20;;;;;;6181221;23;19916;-78
2022/02/06 01:08:39;;;;;;;;;;;0.30;86.80;;;;;;6184969;23;19916;-77
2022/02/06 01:11:09;;;;;;;;;;;0.30;86.10;;;;;;6160118;23;19920;-75
2022/02/06 01:16:18;;;;;;;;;;;0.20;86.10;;;;;;6183618;23;19923;-75
2022/02/06 01:18:56;;;;;;;;;;;0.20;85.50;;;;;;6160466;23;19967;-74
2022/02/06 01:21:43;;;;;;;;;;;0.20;86.00;;;;;;6158848;23;19916;-76
2022/02/06 01:24:18;;;;;;;;;;;0.10;86.50;;;;;;6186794;23;19916;-75
2022/02/06 01:27:05;;;;;;;;;;;0.10;87.20;;;;;;6158898;23;19916;-78
2022/02/06 01:29:47;;;;;;;;;;;0.10;86.50;;;;;;6160726;23;20463;-77
2022/02/06 01:32:18;;;;;;;;;;;0.00;86.00;;;;;;6186691;23;20329;-78
2022/02/06 01:35:01;;;;;;;;;;;0.00;86.80;;;;;;6160165;23;19951;-75
2022/02/06 01:37:36;;;;;;;;;;;0.00;86.70;;;;;;6158345;23;20379;-74
2022/02/06 01:40:12;;;;;;;;;;;0.00;85.80;;;;;;6185144;23;19916;-77
2022/02/06 01:42:47;;;;;;;;;;;0.00;85.30;;;;;;6160901;23;19939;-75
2022/02/06 02:28:34;;;;;;;;;;;-0.40;85.50;;;;;;6185581;23;19920;-75
2022/02/06 02:31:13;;;;;;;;;;;-0.40;85.40;;;;;;6184008;23;20359;-75
2022/02/06 02:47:20;;;;;;;;;;;-0.50;84.90;;;;;;6184474;23;19924;-78
2022/02/06 02:49:57;;;;;;;;;;;-0.80;86.00;;;;;;6183023;23;19966;-76
2022/02/06 02:55:23;;;;;;;;;;;-0.90;85.60;;;;;;6183085;23;19924;-78
2022/02/06 02:57:58;;;;;;;;;;;-1.00;85.30;;;;;;6182442;23;19978;-78
2022/02/06 03:03:31;;;;;;;;;;;-1.10;86.20;;;;;;6183874;23;19916;-77
2022/02/06 03:06:00;;;;;;;;;;;-1.10;88.20;;;;;;6185242;23;19923;-75
2022/02/06 03:08:28;;;;;;;;;;;-1.10;90.40;;;;;;6158164;23;19920;-77
2022/02/06 03:10:57;;;;;;;;;;;-1.00;90.40;;;;;;6158118;23;19988;-75
2022/02/06 03:13:34;;;;;;;;;;;-0.90;90.20;;;;;;6183053;23;19920;-77
2022/02/06 03:16:16;;;;;;;;;;;-0.90;89.70;;;;;;6183908;23;19943;-75
2022/02/06 03:21:30;;;;;;;;;;;-0.80;89.50;;;;;;6183837;23;19954;-77
2022/02/06 03:24:06;;;;;;;;;;;-0.80;89.00;;;;;;6159327;23;19935;-76
2022/02/06 03:26:33;;;;;;;;;;;-0.80;88.50;;;;;;6183200;23;19917;-76
2022/02/06 03:29:00;;;;;;;;;;;-0.80;88.80;;;;;;6184709;23;19916;-75
2022/02/06 03:31:26;;;;;;;;;;;-0.80;88.20;;;;;;6183078;23;19917;-77
2022/02/06 03:33:53;;;;;;;;;;;-0.80;88.20;;;;;;6184163;23;19939;-75
2022/02/06 03:36:20;;;;;;;;;;;-0.80;88.10;;;;;;6157555;23;19920;-75
2022/02/06 03:38:48;;;;;;;;;;;-0.90;87.40;;;;;;6157546;23;19920;-78
2022/02/06 03:41:16;;;;;;;;;;;-1.00;87.70;;;;;;6182858;23;19971;-75
2022/02/06 03:46:24;;;;;;;;;;;-1.10;90.10;;;;;;6183526;23;19916;-75
2022/02/06 03:49:43;;;;;;;;;;;-1.10;90.40;;;;;;6157992;23;20561;-78
2022/02/06 03:51:40;;;;;;;;;;;-1.10;90.60;;;;;;6171075;23;19943;-76
2022/02/06 03:54:09;;;;;;;;;;;-1.00;91.00;;;;;;6160565;23;19976;-77
2022/02/06 03:56:36;;;;;;;;;;;-1.00;90.60;;;;;;6185398;23;19916;-78
2022/02/06 03:59:04;;;;;;;;;;;-1.00;91.50;;;;;;6158245;23;19998;-75
2022/02/06 04:01:30;;;;;;;;;;;-0.90;91.60;;;;;;6183699;23;20264;-77
2022/02/06 04:03:57;;;;;;;;;;;-0.90;91.20;;;;;;6159420;23;20245;-75
2022/02/06 04:06:27;;;;;;;;;;;-0.90;91.80;;;;;;6185000;23;19920;-75
2022/02/06 04:08:56;;;;;;;;;;;-0.80;92.10;;;;;;6158356;23;19951;-76
2022/02/06 04:11:34;;;;;;;;;;;-0.80;92.10;;;;;;6183851;23;19922;-75
2022/02/06 04:14:21;;;;;;;;;;;-0.80;91.80;;;;;;6160035;23;19916;-77
2022/02/06 04:16:53;;;;;;;;;;;-0.70;92.20;;;;;;6157614;23;19916;-77
2022/02/06 04:19:23;;;;;;;;;;;-0.70;92.30;;;;;;6157921;23;19995;-77
2022/02/06 04:21:50;;;;;;;;;;;-0.60;92.60;;;;;;6158254;23;19916;-78
2022/02/06 04:24:18;;;;;;;;;;;-0.60;92.60;;;;;;6160503;23;19920;-75
2022/02/06 04:26:44;;;;;;;;;;;-0.50;92.50;;;;;;6181374;23;19920;-77
2022/02/06 04:29:11;;;;;;;;;;;-0.50;92.80;;;;;;6158563;23;19916;-75
2022/02/06 04:31:40;;;;;;;;;;;-0.50;92.70;;;;;;6185936;23;19916;-76
2022/02/06 04:34:07;;;;;;;;;;;-0.50;92.50;;;;;;6160178;23;19916;-76
2022/02/06 04:36:52;;;;;;;;;;;-0.40;92.90;;;;;;6159935;23;19920;-77
2022/02/06 04:50:52;;;;;;;;;;;-0.20;93.10;;;;;;6185746;23;19916;-77
2022/02/06 05:30:39;;;;;;;;;;;0.10;93.40;;;;;;6187174;23;19916;-76
2022/02/06 05:33:06;;;;;;;;;;;0.10;93.50;;;;;;6160170;23;20392;-77
2022/02/06 05:35:38;;;;;;;;;;;0.10;93.60;;;;;;6161969;23;20360;-75
2022/02/06 05:38:04;;;;;;;;;;;0.10;93.60;;;;;;6160443;23;19920;-77
2022/02/06 05:40:31;;;;;;;;;;;0.10;93.80;;;;;;6187120;23;19920;-76
2022/02/06 05:42:58;;;;;;;;;;;0.10;93.80;;;;;;6185803;23;20341;-76
2022/02/06 05:45:25;;;;;;;;;;;0.10;93.80;;;;;;6187538;23;19916;-76
2022/02/06 05:47:51;;;;;;;;;;;0.10;93.80;;;;;;6184284;23;19916;-77
2022/02/06 05:50:21;;;;;;;;;;;0.10;93.70;;;;;;6183516;23;19916;-77
2022/02/06 05:52:47;;;;;;;;;;;0.10;93.80;;;;;;6161762;23;19916;-75
2022/02/06 05:55:14;;;;;;;;;;;0.10;93.80;;;;;;6160362;23;19974;-77
2022/02/06 05:57:41;;;;;;;;;;;0.10;93.80;;;;;;6190045;23;19923;-75
2022/02/06 06:00:09;;;;;;;;;;;0.10;93.90;;;;;;6188899;23;19947;-77
2022/02/06 06:02:36;;;;;;;;;;;0.10;94.00;;;;;;6188349;23;19916;-76
2022/02/06 06:05:03;;;;;;;;;;;0.10;94.10;;;;;;6187298;23;20249;-75
2022/02/06 06:07:30;;;;;;;;;;;0.20;94.10;;;;;;6159202;23;19923;-77
2022/02/06 06:09:57;;;;;;;;;;;0.20;94.20;;;;;;6186280;23;19927;-76
2022/02/06 06:12:23;;;;;;;;;;;0.20;94.30;;;;;;6158982;23;19916;-77
2022/02/06 06:14:50;;;;;;;;;;;0.20;94.30;;;;;;6186202;23;19951;-77
2022/02/06 06:17:17;;;;;;;;;;;0.20;94.80;;;;;;6186605;23;19916;-77
2022/02/06 06:19:47;;;;;;;;;;;0.20;94.40;;;;;;6184938;23;19920;-77
2022/02/06 06:22:17;;;;;;;;;;;0.20;94.50;;;;;;6185692;23;19920;-75
2022/02/06 06:24:46;;;;;;;;;;;0.20;94.40;;;;;;6157707;23;20329;-77
2022/02/06 06:27:13;;;;;;;;;;;0.20;94.40;;;;;;6187239;23;19939;-76
2022/02/06 06:29:40;;;;;;;;;;;0.20;94.40;;;;;;6158038;23;19952;-76
2022/02/06 06:32:07;;;;;;;;;;;0.20;94.50;;;;;;6185628;23;20396;-75
2022/02/06 06:34:34;;;;;;;;;;;0.20;94.60;;;;;;6160878;23;19967;-75
2022/02/06 06:37:00;;;;;;;;;;;0.30;94.60;;;;;;6184746;23;19963;-75
2022/02/06 06:39:41;;;;;;;;;;;0.30;94.60;;;;;;6156777;23;19953;-76
2022/02/06 06:42:08;;;;;;;;;;;0.20;94.50;;;;;;6162861;23;19927;-78
2022/02/06 06:44:35;;;;;;;;;;;0.20;94.60;;;;;;6158800;23;19916;-77
2022/02/06 06:47:02;;;;;;;;;;;0.30;94.60;;;;;;6159855;23;19951;-75
2022/02/06 06:49:29;;;;;;;;;;;0.30;94.60;;;;;;6156948;23;19920;-76
2022/02/06 06:51:56;;;;;;;;;;;0.30;94.60;;;;;;6160530;23;20325;-76
2022/02/06 06:54:23;;;;;;;;;;;0.30;94.60;;;;;;6184796;23;19951;-77
2022/02/06 06:57:05;;;;;;;;;;;0.30;94.40;;;;;;6183485;23;19923;-76
2022/02/06 07:04:50;;;;;;;;;;;0.30;94.60;;;;;;6185114;23;20533;-77
2022/02/06 07:07:17;;;;;;;;;;;0.30;94.60;;;;;;6159866;23;19931;-75
2022/02/06 07:09:44;;;;;;;;;;;0.30;94.70;;;;;;6188591;23;19920;-75
2022/02/06 07:12:13;;;;;;;;;;;0.30;94.60;;;;;;6190211;23;19916;-76
2022/02/06 07:14:40;;;;;;;;;;;0.20;94.50;;;;;;6156466;23;19916;-75
2022/02/06 07:17:07;;;;;;;;;;;0.20;94.50;;;;;;6163765;23;20199;-77
2022/02/06 07:19:37;;;;;;;;;;;0.20;94.50;;;;;;6186911;23;19923;-77
2022/02/06 07:22:04;;;;;;;;;;;0.20;94.70;;;;;;6186199;23;20416;-76
2022/02/06 07:24:33;;;;;;;;;;;0.20;94.70;;;;;;6156916;23;19924;-77
2022/02/06 07:27:04;;;;;;;;;;;0.20;94.70;;;;;;6188741;23;19920;-76
2022/02/06 07:29:32;;;;;;;;;;;0.20;94.70;;;;;;6161917;23;19943;-76
2022/02/06 07:32:00;;;;;;;;;;;0.20;94.70;;;;;;6191287;23;19916;-76
2022/02/06 07:34:32;;;;;;;;;;;0.20;94.70;;;;;;6186413;23;19924;-77
2022/02/06 07:36:59;;;;;;;;;;;0.30;94.70;;;;;;6162540;23;19971;-77
2022/02/06 07:39:26;;;;;;;;;;;0.30;94.70;;;;;;6187990;23;19920;-77
2022/02/06 07:41:53;;;;;;;;;;;0.30;94.70;;;;;;6184153;23;19916;-77
2022/02/06 07:44:20;;;;;;;;;;;0.30;94.80;;;;;;6183459;23;20241;-76
2022/02/06 07:46:48;;;;;;;;;;;0.30;94.80;;;;;;6189627;23;19916;-77
2022/02/06 07:49:15;;;;;;;;;;;0.40;94.80;;;;;;6185998;23;19936;-77
2022/02/06 07:51:43;;;;;;;;;;;0.40;94.90;;;;;;6160788;23;19916;-77
2022/02/06 07:54:10;;;;;;;;;;;0.40;94.90;;;;;;6184850;23;19916;-76
2022/02/06 07:56:37;;;;;;;;;;;0.40;94.90;;;;;;6192375;23;19916;-77
2022/02/06 07:59:04;;;;;;;;;;;0.40;94.80;;;;;;6187218;23;19916;-76
2022/02/06 08:01:31;;;;;;;;;;;0.40;94.90;;;;;;6161543;23;19920;-77
2022/02/06 08:03:58;;;;;;;;;;;0.40;94.90;;;;;;6161776;23;20104;-78
2022/02/06 08:06:25;;;;;;;;;;;0.40;94.90;;;;;;6157173;23;19962;-76
2022/02/06 08:08:51;;;;;;;;;;;0.40;94.80;;;;;;6156471;23;20246;-77
2022/02/06 08:11:18;;;;;;;;;;;0.40;94.90;;;;;;6156409;23;19924;-76
2022/02/06 08:13:54;;;;;;;;;;;0.40;94.90;;;;;;6164542;23;19961;-76
2022/02/06 08:16:21;;;;;;;;;;;0.40;94.80;;;;;;6190835;23;20326;-76
2022/02/06 08:18:48;;;;;;;;;;;0.40;94.90;;;;;;6184870;23;19971;-77
2022/02/06 08:21:16;;;;;;;;;;;0.40;94.90;;;;;;6162128;23;19967;-76
2022/02/06 08:23:45;;;;;;;;;;;0.40;94.80;;;;;;6194228;23;19900;-77
2022/02/06 08:26:11;;;;;;;;;;;0.40;94.80;;;;;;6158854;23;20380;-76
2022/02/06 08:28:39;;;;;;;;;;;0.40;94.80;;;;;;6164159;23;19923;-76
2022/02/06 08:31:06;;;;;;;;;;;0.40;94.90;;;;;;6191079;23;19966;-77
2022/02/06 08:33:32;;;;;;;;;;;0.40;94.90;;;;;;6158703;23;19924;-76
2022/02/06 08:36:00;;;;;;;;;;;0.40;94.90;;;;;;6159588;23;20341;-76
2022/02/06 08:38:27;;;;;;;;;;;0.40;94.80;;;;;;6160069;23;19916;-76
2022/02/06 08:40:54;;;;;;;;;;;0.30;94.80;;;;;;6182809;23;20334;-76
2022/02/06 08:43:21;;;;;;;;;;;0.30;94.80;;;;;;6198212;23;19924;-77
2022/02/06 08:45:48;;;;;;;;;;;0.30;94.80;;;;;;6190393;23;19920;-76
2022/02/06 08:48:16;;;;;;;;;;;0.20;94.70;;;;;;6189549;23;19974;-76
2022/02/06 08:50:43;;;;;;;;;;;0.10;94.70;;;;;;6192356;23;19923;-76
2022/02/06 08:53:10;;;;;;;;;;;0.10;94.70;;;;;;6189831;23;19924;-77
2022/02/06 08:55:37;;;;;;;;;;;0.10;94.90;;;;;;6183801;23;19943;-77
2022/02/06 08:58:04;;;;;;;;;;;0.10;94.70;;;;;;6199498;23;19904;-77
2022/02/06 09:00:31;;;;;;;;;;;0.20;94.90;;;;;;6164700;23;19944;-76
2022/02/06 09:02:58;;;;;;;;;;;0.20;94.90;;;;;;6164397;23;20249;-77
2022/02/06 09:05:26;;;;;;;;;;;0.20;94.80;;;;;;6174009;23;20399;-76
2022/02/06 09:07:53;;;;;;;;;;;0.20;94.80;;;;;;6161639;23;19975;-77
2022/02/06 09:10:21;;;;;;;;;;;0.20;94.80;;;;;;6165298;23;19916;-77
2022/02/06 15:57:09;;;;;;;;;;;8.20;73.60;;;;;;6102132;23;20349;-75
2022/02/06 15:59:36;;;;;;;;;;;8.20;73.50;;;;;;6151687;23;19916;-77
2022/02/06 16:02:03;;;;;;;;;;;8.10;73.70;;;;;;6152122;23;19947;-75
2022/02/06 16:04:30;;;;;;;;;;;8.10;73.70;;;;;;6170018;23;19900;-76
2022/02/06 21:16:23;;;;;;;;;;;1.40;90.90;;;;;;6119451;23;19992;-76
2022/02/06 21:18:50;;;;;;;;;;;1.40;91.10;;;;;;6153044;23;20338;-76
2022/02/06 21:21:17;;;;;;;;;;;1.30;90.90;;;;;;6164506;23;20334;-77
2022/02/06 21:23:45;;;;;;;;;;;1.30;91.10;;;;;;6154776;23;19924;-75
2022/02/06 21:26:12;;;;;;;;;;;1.20;90.90;;;;;;6154987;23;19916;-75
2022/02/06 21:28:41;;;;;;;;;;;1.20;90.80;;;;;;6160861;23;19920;-76
2022/02/06 21:31:08;;;;;;;;;;;1.10;90.70;;;;;;6154974;23;20231;-75
2022/02/06 21:33:36;;;;;;;;;;;1.00;91.40;;;;;;6158187;23;19967;-77
2022/02/06 21:36:06;;;;;;;;;;;1.00;91.30;;;;;;6135695;23;19905;-75
2022/02/06 21:38:35;;;;;;;;;;;1.00;91.70;;;;;;6131672;23;19920;-75
2022/02/06 21:41:02;;;;;;;;;;;1.10;91.50;;;;;;6135561;23;19916;-77
2022/02/06 21:43:29;;;;;;;;;;;1.00;91.20;;;;;;6161489;23;19927;-76
2022/02/06 21:45:56;;;;;;;;;;;1.00;91.50;;;;;;6155912;23;19916;-76
2022/02/06 21:48:23;;;;;;;;;;;0.90;91.60;;;;;;6160076;23;19916;-76
2022/02/06 21:50:49;;;;;;;;;;;0.90;91.80;;;;;;6164055;23;19920;-76
2022/02/06 21:53:16;;;;;;;;;;;1.00;92.50;;;;;;6136132;23;20009;-75
2022/02/06 21:55:43;;;;;;;;;;;1.10;92.50;;;;;;6154944;23;19931;-76
2022/02/06 21:58:10;;;;;;;;;;;1.10;92.60;;;;;;6155077;23;19948;-76
2022/02/06 22:00:37;;;;;;;;;;;1.20;92.40;;;;;;6126344;23;19940;-75
2022/02/06 22:03:04;;;;;;;;;;;1.20;92.30;;;;;;6152177;23;19927;-76
2022/02/06 22:05:38;;;;;;;;;;;1.10;91.70;;;;;;6154569;23;19943;-75
2022/02/06 22:08:26;;;;;;;;;;;0.90;91.30;;;;;;6158596;23;19971;-76
2022/02/06 22:11:49;;;;;;;;;;;0.80;91.60;;;;;;6155563;23;19951;-78
2022/02/06 22:23:01;;;;;;;;;;;0.70;91.40;;;;;;6190051;23;19920;-76
2022/02/06 22:30:09;;;;;;;;;;;0.60;91.40;;;;;;6188329;23;19916;-76
2022/02/06 22:32:35;;;;;;;;;;;0.60;91.80;;;;;;6183118;23;19916;-76
2022/02/06 22:35:03;;;;;;;;;;;0.50;91.60;;;;;;6182769;23;19920;-76
2022/02/06 22:37:30;;;;;;;;;;;0.60;91.50;;;;;;6162338;23;19920;-75
2022/02/06 22:39:58;;;;;;;;;;;0.60;91.70;;;;;;6162302;23;19939;-75
2022/02/06 22:42:25;;;;;;;;;;;0.60;92.40;;;;;;6188565;23;19924;-76
2022/02/06 22:44:51;;;;;;;;;;;0.60;93.20;;;;;;6195797;23;19920;-77
2022/02/06 22:47:18;;;;;;;;;;;0.70;93.30;;;;;;6183836;23;19971;-76
2022/02/06 22:49:45;;;;;;;;;;;0.80;93.30;;;;;;6185843;23;19920;-77
2022/02/06 22:52:12;;;;;;;;;;;0.80;93.50;;;;;;6187654;23;19916;-75
2022/02/06 22:54:39;;;;;;;;;;;0.80;93.30;;;;;;6161976;23;19924;-77
2022/02/06 22:57:06;;;;;;;;;;;0.90;93.10;;;;;;6165951;23;19944;-76
2022/02/06 22:59:33;;;;;;;;;;;0.80;93.20;;;;;;6187364;23;19916;-75
2022/02/06 23:01:59;;;;;;;;;;;0.80;93.20;;;;;;6187364;23;19927;-77
2022/02/06 23:04:26;;;;;;;;;;;0.80;93.00;;;;;;6182123;23;19920;-76
2022/02/06 23:06:53;;;;;;;;;;;0.80;93.10;;;;;;6185962;23;19920;-76
2022/02/06 23:09:23;;;;;;;;;;;0.70;93.00;;;;;;6166444;23;19923;-76
2022/02/06 23:11:50;;;;;;;;;;;0.70;92.90;;;;;;6187774;23;19922;-77
2022/02/06 23:14:18;;;;;;;;;;;0.70;92.90;;;;;;6188100;23;19971;-76
2022/02/06 23:16:47;;;;;;;;;;;0.60;92.80;;;;;;6192978;23;19943;-76
2022/02/06 23:19:13;;;;;;;;;;;0.60;92.80;;;;;;6166557;23;20750;-77
2022/02/06 23:21:41;;;;;;;;;;;0.60;93.00;;;;;;6166717;23;19917;-77
2022/02/06 23:24:08;;;;;;;;;;;0.70;93.80;;;;;;6185380;23;19924;-77
2022/02/06 23:26:34;;;;;;;;;;;0.70;93.80;;;;;;6188518;23;19966;-76
2022/02/06 23:29:03;;;;;;;;;;;0.80;94.00;;;;;;6186846;23;19920;-77
2022/02/06 23:31:30;;;;;;;;;;;0.80;93.90;;;;;;6183424;23;19923;-77
2022/02/06 23:33:57;;;;;;;;;;;0.80;93.60;;;;;;6161813;23;20284;-76
2022/02/06 23:36:25;;;;;;;;;;;0.70;93.40;;;;;;6192010;23;19916;-76
2022/02/06 23:38:52;;;;;;;;;;;0.60;92.80;;;;;;6186429;23;19916;-76
2022/02/06 23:41:19;;;;;;;;;;;0.60;92.70;;;;;;6188998;23;20338;-76
2022/02/06 23:43:48;;;;;;;;;;;0.50;92.30;;;;;;6159919;23;19916;-76
2022/02/06 23:46:22;;;;;;;;;;;0.50;92.40;;;;;;6196776;23;19919;-77
2022/02/06 23:48:50;;;;;;;;;;;0.30;92.60;;;;;;6183056;23;20253;-76
2022/02/06 23:51:47;;;;;;;;;;;0.30;93.00;;;;;;6186332;23;20350;-76
2022/02/06 23:54:10;;;;;;;;;;;0.20;92.90;;;;;;6185554;23;20285;-76
